createdAt,value
2019-05-26T00:00:11.573Z,10.68
2019-05-26T00:01:11.541Z,10.64
2019-05-26T00:02:11.521Z,10.64
2019-05-26T00:03:11.501Z,10.61
2019-05-26T00:04:11.496Z,10.61
2019-05-26T00:05:11.462Z,10.53
2019-05-26T00:06:11.446Z,10.60
2019-05-26T00:07:11.426Z,10.59
2019-05-26T00:08:11.405Z,10.67
2019-05-26T00:09:11.405Z,10.70
2019-05-26T00:10:11.403Z,10.68
2019-05-26T00:11:11.349Z,10.82
2019-05-26T00:12:15.717Z,10.82
2019-05-26T00:13:11.308Z,10.84
2019-05-26T00:14:11.291Z,10.82
2019-05-26T00:15:11.286Z,10.84
2019-05-26T00:16:11.280Z,10.76
2019-05-26T00:17:11.236Z,10.81
2019-05-26T00:18:11.217Z,10.74
2019-05-26T00:19:11.194Z,10.82
2019-05-26T00:20:11.188Z,10.85
2019-05-26T00:21:11.157Z,10.81
2019-05-26T00:22:11.136Z,10.79
2019-05-26T00:23:11.115Z,10.73
2019-05-26T00:24:11.098Z,10.68
2019-05-26T00:25:11.100Z,10.78
2019-05-26T00:26:11.059Z,10.70
2019-05-26T00:27:11.039Z,10.91
2019-05-26T00:28:11.027Z,10.85
2019-05-26T00:29:11.005Z,10.89
2019-05-26T00:30:10.983Z,10.82
2019-05-26T00:31:10.974Z,10.71
2019-05-26T00:32:10.943Z,10.70
2019-05-26T00:33:10.923Z,10.55
2019-05-26T00:34:10.904Z,10.56
2019-05-26T00:35:10.884Z,10.60
2019-05-26T00:36:10.879Z,10.64
2019-05-26T00:37:10.846Z,10.67
2019-05-26T00:38:10.831Z,10.61
2019-05-26T00:39:10.807Z,10.60
2019-05-26T00:40:10.787Z,10.42
2019-05-26T00:41:10.783Z,10.56
2019-05-26T00:42:10.762Z,10.59
2019-05-26T00:43:10.730Z,10.61
2019-05-26T00:44:10.710Z,10.56
2019-05-26T00:45:10.696Z,10.44
2019-05-26T00:46:10.688Z,10.41
2019-05-26T00:47:10.661Z,10.41
2019-05-26T00:48:10.631Z,10.34
2019-05-26T00:49:10.614Z,10.47
2019-05-26T00:50:10.598Z,10.41
2019-05-26T00:51:10.591Z,10.33
2019-05-26T00:52:10.574Z,10.27
2019-05-26T00:53:10.533Z,10.32
2019-05-26T00:54:10.516Z,10.27
2019-05-26T00:55:10.496Z,10.32
2019-05-26T00:56:10.475Z,10.29
2019-05-26T00:57:10.473Z,10.25
2019-05-26T00:58:10.437Z,10.12
2019-05-26T00:59:10.415Z,10.12
2019-05-26T01:00:10.418Z,10.08
2019-05-26T01:01:10.383Z,10.09
2019-05-26T01:02:10.373Z,10.14
2019-05-26T01:03:10.340Z,10.02
2019-05-26T01:04:10.344Z,10.09
2019-05-26T01:05:10.302Z,9.94
2019-05-26T01:06:10.280Z,9.94
2019-05-26T01:07:10.275Z,10.01
2019-05-26T01:08:10.241Z,9.90
2019-05-26T01:09:10.221Z,9.99
2019-05-26T01:10:10.202Z,9.99
2019-05-26T01:11:10.183Z,10.04
2019-05-26T01:12:10.178Z,10.02
2019-05-26T01:13:10.145Z,10.01
2019-05-26T01:14:10.123Z,10.01
2019-05-26T01:15:10.104Z,10.07
2019-05-26T01:16:10.084Z,10.02
2019-05-26T01:17:10.082Z,9.90
2019-05-26T01:18:10.044Z,9.91
2019-05-26T01:19:10.022Z,9.96
2019-05-26T01:20:10.004Z,10.04
2019-05-26T01:21:09.984Z,10.08
2019-05-26T01:22:09.965Z,10.02
2019-05-26T01:23:09.960Z,10.08
2019-05-26T01:24:09.927Z,10.04
2019-05-26T01:25:09.965Z,10.02
2019-05-26T01:26:09.890Z,9.97
2019-05-26T01:27:09.867Z,9.87
2019-05-26T01:28:09.862Z,9.81
2019-05-26T01:29:09.829Z,9.86
2019-05-26T01:30:09.808Z,9.86
2019-05-26T01:31:09.787Z,9.75
2019-05-26T01:32:09.773Z,9.78
2019-05-26T01:33:09.768Z,9.78
2019-05-26T01:34:09.727Z,9.74
2019-05-26T01:35:09.712Z,9.71
2019-05-26T01:36:09.695Z,9.68
2019-05-26T01:37:09.669Z,9.71
2019-05-26T01:38:23.248Z,9.75
2019-05-26T01:39:09.628Z,9.68
2019-05-26T01:40:09.611Z,9.69
2019-05-26T01:41:09.587Z,9.71
2019-05-26T01:42:09.582Z,9.74
2019-05-26T01:43:09.551Z,9.76
2019-05-26T01:44:09.556Z,9.75
2019-05-26T01:45:09.509Z,9.69
2019-05-26T01:46:09.492Z,9.74
2019-05-26T01:47:09.469Z,9.71
2019-05-26T01:48:09.450Z,9.74
2019-05-26T01:49:09.442Z,9.72
2019-05-26T01:50:09.412Z,9.71
2019-05-26T01:51:09.391Z,9.69
2019-05-26T01:52:09.371Z,9.71
2019-05-26T01:53:09.351Z,9.71
2019-05-26T01:54:09.344Z,9.74
2019-05-26T01:55:09.311Z,9.68
2019-05-26T01:56:09.294Z,9.69
2019-05-26T01:57:09.271Z,9.74
2019-05-26T01:58:09.253Z,9.72
2019-05-26T01:59:09.243Z,9.84
2019-05-26T02:00:09.210Z,9.68
2019-05-26T02:01:09.193Z,9.76
2019-05-26T02:02:09.170Z,9.74
2019-05-26T02:03:09.149Z,9.64
2019-05-26T02:04:09.147Z,9.57
2019-05-26T02:05:09.112Z,9.54
2019-05-26T02:06:09.097Z,9.60
2019-05-26T02:07:09.072Z,9.54
2019-05-26T02:08:11.815Z,9.66
2019-05-26T02:09:09.046Z,9.66
2019-05-26T02:10:09.010Z,9.58
2019-05-26T02:11:08.992Z,9.58
2019-05-26T02:12:08.971Z,9.58
2019-05-26T02:13:08.952Z,9.47
2019-05-26T02:14:08.951Z,9.48
2019-05-26T02:15:08.914Z,9.43
2019-05-26T02:16:08.894Z,9.46
2019-05-26T02:17:08.871Z,9.43
2019-05-26T02:18:08.850Z,9.48
2019-05-26T02:19:08.846Z,9.50
2019-05-26T02:20:08.839Z,9.47
2019-05-26T02:21:08.791Z,9.48
2019-05-26T02:22:08.773Z,9.46
2019-05-26T02:23:08.750Z,9.50
2019-05-26T02:24:08.744Z,9.61
2019-05-26T02:25:08.711Z,9.53
2019-05-26T02:26:08.690Z,9.61
2019-05-26T02:27:08.670Z,9.57
2019-05-26T02:28:08.647Z,9.66
2019-05-26T02:29:08.668Z,9.68
2019-05-26T02:30:08.623Z,9.72
2019-05-26T02:31:08.595Z,9.76
2019-05-26T02:32:08.569Z,9.68
2019-05-26T02:33:08.553Z,9.69
2019-05-26T02:34:08.536Z,9.66
2019-05-26T02:35:08.524Z,9.65
2019-05-26T02:36:08.506Z,9.71
2019-05-26T02:37:08.473Z,9.68
2019-05-26T02:38:08.450Z,9.69
2019-05-26T02:39:08.431Z,9.54
2019-05-26T02:40:08.426Z,9.56
2019-05-26T02:41:08.389Z,9.57
2019-05-26T02:42:08.370Z,9.53
2019-05-26T02:43:08.349Z,9.53
2019-05-26T02:44:08.327Z,9.54
2019-05-26T02:45:08.325Z,9.56
2019-05-26T02:46:08.308Z,9.51
2019-05-26T02:47:08.270Z,9.53
2019-05-26T02:48:08.272Z,9.54
2019-05-26T02:49:08.233Z,9.42
2019-05-26T05:41:33.546Z,12.65
2019-05-26T05:42:33.510Z,12.54
2019-05-26T05:43:33.486Z,12.78
2019-05-26T05:44:33.478Z,12.96
2019-05-26T05:45:33.443Z,13.14
2019-05-26T05:46:33.422Z,13.23
2019-05-26T05:47:33.400Z,13.17
2019-05-26T05:48:33.381Z,13.23
2019-05-26T05:49:33.375Z,13.48
2019-05-26T05:50:33.339Z,13.49
2019-05-26T05:51:33.321Z,13.73
2019-05-26T05:52:33.302Z,13.95
2019-05-26T05:53:33.283Z,13.85
2019-05-26T05:54:33.277Z,14.17
2019-05-26T05:55:33.246Z,14.42
2019-05-26T05:56:33.223Z,14.45
2019-05-26T05:57:33.204Z,14.75
2019-05-26T05:58:33.185Z,15.16
2019-05-26T05:59:33.185Z,15.07
2019-05-26T06:00:33.147Z,14.98
2019-05-26T06:01:33.136Z,15.20
2019-05-26T06:02:33.112Z,15.21
2019-05-26T06:03:33.093Z,15.39
2019-05-26T06:04:33.092Z,15.50
2019-05-26T06:05:33.055Z,15.46
2019-05-26T06:06:33.038Z,15.50
2019-05-26T06:07:33.021Z,15.50
2019-05-26T06:08:33.003Z,15.29
2019-05-26T06:09:33.005Z,15.16
2019-05-26T06:10:32.969Z,15.19
2019-05-26T06:11:32.951Z,15.09
2019-05-26T06:12:32.931Z,14.96
2019-05-26T06:13:32.915Z,15.27
2019-05-26T06:14:32.956Z,15.34
2019-05-26T06:15:32.900Z,15.67
2019-05-26T06:32:38.623Z,16.41
2019-05-26T06:33:38.592Z,16.25
2019-05-26T06:34:38.567Z,16.21
2019-05-26T06:35:38.548Z,16.02
2019-05-26T06:36:38.545Z,16.24
2019-05-26T06:37:38.515Z,16.42
2019-05-26T06:38:38.493Z,16.64
2019-05-26T06:39:38.477Z,16.79
2019-05-26T06:40:41.266Z,16.96
2019-05-26T06:41:38.454Z,17.25
2019-05-26T06:42:38.425Z,17.44
2019-05-26T06:43:38.405Z,17.44
2019-05-26T06:44:52.518Z,17.59
2019-05-26T06:45:38.371Z,17.78
2019-05-26T06:46:38.366Z,17.95
2019-05-26T06:47:38.336Z,18.26
2019-05-26T06:48:38.320Z,18.27
2019-05-26T06:49:38.306Z,18.60
2019-05-26T06:50:38.289Z,18.37
2019-05-26T06:51:38.283Z,18.78
2019-05-26T06:52:38.255Z,18.81
2019-05-26T06:53:38.240Z,19.07
2019-05-26T06:54:38.221Z,19.36
2019-05-26T06:55:38.205Z,19.51
2019-05-26T06:56:38.204Z,19.25
2019-05-26T06:57:38.173Z,19.06
2019-05-26T06:58:38.159Z,18.91
2019-05-26T06:59:38.142Z,18.90
2019-05-26T07:00:38.123Z,18.60
2019-05-26T07:01:38.123Z,18.84
2019-05-26T07:02:38.098Z,18.91
2019-05-26T07:03:38.080Z,18.67
2019-05-26T07:04:38.064Z,18.92
2019-05-26T07:05:38.049Z,18.92
2019-05-26T07:06:38.049Z,18.91
2019-05-26T07:07:38.015Z,18.98
2019-05-26T07:08:38.002Z,19.13
2019-05-26T07:09:37.989Z,19.36
2019-05-26T07:10:37.969Z,19.68
2019-05-26T07:11:51.736Z,19.74
2019-05-26T07:12:37.956Z,19.91
2019-05-26T07:13:37.920Z,20.02
2019-05-26T07:14:37.904Z,20.21
2019-05-26T07:15:37.897Z,20.55
2019-05-26T07:35:11.910Z,18.50
2019-05-26T07:36:11.877Z,18.37
2019-05-26T07:37:11.858Z,18.63
2019-05-26T07:38:11.857Z,18.78
2019-05-26T07:39:11.825Z,18.73
2019-05-26T07:40:11.805Z,18.81
2019-05-26T07:41:11.795Z,18.85
2019-05-26T07:42:11.775Z,18.90
2019-05-26T07:43:11.775Z,18.99
2019-05-26T07:44:11.749Z,19.04
2019-05-26T07:45:11.730Z,18.91
2019-05-26T07:46:11.716Z,18.88
2019-05-26T07:47:11.699Z,18.92
2019-05-26T07:57:21.287Z,18.72
2019-05-26T07:58:21.266Z,18.73
2019-05-26T07:59:21.235Z,18.69
2019-05-26T08:00:21.220Z,18.70
2019-05-26T08:01:24.378Z,18.66
2019-05-26T08:02:21.187Z,18.52
2019-05-26T08:03:21.186Z,18.57
2019-05-26T08:04:21.155Z,18.80
2019-05-26T08:05:21.140Z,18.90
2019-05-26T08:06:21.125Z,18.92
2019-05-26T08:20:15.470Z,19.29
2019-05-26T08:21:15.436Z,19.23
2019-05-26T08:22:15.421Z,19.32
2019-05-26T08:23:15.462Z,19.46
2019-05-26T08:24:15.388Z,19.44
2019-05-26T08:25:15.375Z,19.11
2019-05-26T08:26:15.353Z,19.10
2019-05-26T08:27:15.338Z,19.11
2019-05-26T08:28:15.363Z,19.43
2019-05-26T08:29:15.311Z,19.56
2019-05-26T08:30:15.294Z,19.73
2019-05-26T08:31:15.281Z,19.83
2019-05-26T08:42:00.488Z,19.61
2019-05-26T08:43:00.456Z,19.46
2019-05-26T08:44:00.456Z,19.46
2019-05-26T08:49:17.910Z,19.32
2019-05-26T08:50:01.664Z,19.43
2019-05-26T08:51:01.648Z,19.43
2019-05-26T08:52:01.637Z,19.50
2019-05-26T08:53:01.619Z,19.63
2019-05-26T08:54:01.604Z,19.77
2019-05-26T08:55:01.602Z,19.86
2019-05-26T09:13:01.900Z,20.10
2019-05-26T09:14:01.865Z,20.13
2019-05-26T09:15:01.861Z,20.33
2019-05-26T09:16:01.837Z,20.36
2019-05-26T09:17:01.818Z,20.42
2019-05-26T09:18:01.797Z,20.39
2019-05-26T09:19:01.781Z,20.38
2019-05-26T09:20:01.784Z,20.58
2019-05-26T09:21:01.808Z,20.72
2019-05-26T09:22:01.736Z,20.76
2019-05-26T09:23:01.721Z,20.87
2019-05-26T09:24:01.706Z,21.09
2019-05-26T09:25:01.931Z,20.98
2019-05-26T09:26:01.675Z,21.19
2019-05-26T09:27:01.661Z,21.17
2019-05-26T09:28:01.646Z,21.29
2019-05-26T09:29:01.649Z,21.24
2019-05-26T09:30:01.635Z,21.22
2019-05-26T09:31:01.706Z,21.09
2019-05-26T09:32:01.596Z,20.74
2019-05-26T09:33:01.578Z,21.03
2019-05-26T09:34:01.565Z,21.04
2019-05-26T10:07:40.134Z,21.99
2019-05-26T10:08:40.100Z,22.15
2019-05-26T10:09:40.085Z,22.21
2019-05-26T10:10:40.080Z,22.33
2019-05-26T10:11:40.053Z,22.46
2019-05-26T10:12:40.040Z,22.57
2019-05-26T10:13:40.021Z,22.73
2019-05-26T10:14:40.007Z,22.80
2019-05-26T10:15:40.012Z,22.68
2019-05-26T10:16:39.981Z,22.76
2019-05-26T10:17:39.964Z,22.37
2019-05-26T10:18:39.949Z,22.21
2019-05-26T10:19:39.938Z,22.28
2019-05-26T10:20:39.922Z,22.10
2019-05-26T10:21:39.921Z,21.94
2019-05-26T10:22:39.894Z,21.98
2019-05-26T10:23:39.880Z,22.31
2019-05-26T10:24:39.871Z,22.06
2019-05-26T10:25:39.859Z,22.35
2019-05-26T10:26:39.855Z,22.05
2019-05-26T10:27:39.832Z,22.21
2019-05-26T10:28:39.815Z,22.30
2019-05-26T10:29:39.805Z,22.43
2019-05-26T10:30:39.790Z,22.60
2019-05-26T10:31:39.792Z,22.70
2019-05-26T10:32:39.763Z,22.92
2019-05-26T10:33:39.751Z,23.02
2019-05-26T10:34:39.757Z,23.12
2019-05-26T10:35:39.736Z,23.04
2019-05-26T10:36:39.745Z,23.32
2019-05-26T10:37:39.700Z,23.42
2019-05-26T10:38:39.688Z,23.32
2019-05-26T10:39:39.675Z,23.75
2019-05-26T10:40:39.662Z,24.15
2019-05-26T10:41:39.651Z,24.90
2019-05-26T10:42:39.657Z,25.38
2019-05-26T10:43:47.501Z,25.62
2019-05-26T10:44:39.616Z,25.70
2019-05-26T10:45:39.600Z,25.95
2019-05-26T10:46:39.591Z,25.79
2019-05-26T10:47:39.727Z,25.20
2019-05-26T10:48:39.573Z,25.09
2019-05-26T10:49:39.559Z,24.55
2019-05-26T10:50:39.546Z,24.57
2019-05-26T10:51:39.536Z,24.62
2019-05-26T10:52:39.541Z,24.81
2019-05-26T10:53:39.512Z,24.73
2019-05-26T10:54:39.502Z,24.31
2019-05-26T10:55:39.496Z,23.95
2019-05-26T10:56:39.481Z,24.21
2019-05-26T10:57:39.494Z,24.35
2019-05-26T10:58:39.457Z,24.45
2019-05-26T10:59:39.447Z,24.35
2019-05-26T11:00:39.441Z,24.49
2019-05-26T11:01:39.430Z,24.65
2019-05-26T11:02:39.432Z,25.35
2019-05-26T11:03:39.406Z,25.98
2019-05-26T11:04:39.393Z,26.48
2019-05-26T11:05:39.384Z,26.10
2019-05-26T11:06:39.372Z,26.02
2019-05-26T11:07:39.376Z,25.67
2019-05-26T11:08:39.354Z,25.65
2019-05-26T11:09:39.342Z,25.21
2019-05-26T11:10:39.331Z,25.45
2019-05-26T11:11:39.320Z,25.40
2019-05-26T11:15:49.355Z,25.54
2019-05-26T11:16:49.329Z,25.18
2019-05-26T11:17:49.340Z,25.30
2019-05-26T11:18:49.311Z,24.91
2019-05-26T11:19:49.298Z,24.16
2019-05-26T11:20:58.527Z,24.20
2019-05-26T11:21:49.280Z,24.55
2019-05-26T11:22:49.526Z,24.68
2019-05-26T11:23:49.257Z,24.77
2019-05-26T11:24:49.249Z,24.68
2019-05-26T11:25:49.236Z,24.95
2019-05-26T11:26:49.241Z,24.53
2019-05-26T11:27:49.217Z,24.64
2019-05-26T11:28:49.223Z,24.43
2019-05-26T11:29:49.208Z,24.37
2019-05-26T11:30:49.201Z,24.47
2019-05-26T11:31:49.183Z,24.37
2019-05-26T11:32:49.165Z,24.50
2019-05-26T11:33:49.171Z,24.53
2019-05-26T11:35:01.219Z,24.45
2019-05-26T11:35:49.135Z,24.49
2019-05-26T11:36:49.129Z,24.30
2019-05-26T11:37:49.115Z,24.06
2019-05-26T11:38:49.129Z,24.10
2019-05-26T11:39:49.097Z,23.63
2019-05-26T11:40:49.131Z,23.88
2019-05-26T11:41:54.806Z,23.91
2019-05-26T11:42:49.066Z,23.69
2019-05-26T11:43:49.055Z,23.36
2019-05-26T11:44:49.061Z,23.13
2019-05-26T11:45:49.040Z,23.01
2019-05-26T11:46:49.027Z,23.19
2019-05-26T11:47:49.015Z,23.12
2019-05-26T11:48:49.002Z,23.09
2019-05-26T11:49:49.006Z,23.00
2019-05-26T11:50:48.982Z,23.10
2019-05-26T11:51:48.969Z,23.10
2019-05-26T11:52:48.978Z,23.07
2019-05-26T11:53:48.968Z,23.10
2019-05-26T11:54:48.935Z,23.22
2019-05-26T11:55:48.943Z,23.15
2019-05-26T11:56:48.917Z,23.16
2019-05-26T11:57:48.914Z,23.16
2019-05-26T11:58:48.914Z,23.40
2019-05-26T11:59:48.894Z,23.38
2019-05-26T12:00:48.869Z,22.88
2019-05-26T12:01:48.857Z,22.91
2019-05-26T12:02:48.846Z,23.05
2019-05-26T12:03:48.852Z,23.15
2019-05-26T12:04:48.824Z,23.25
2019-05-26T12:05:48.812Z,23.40
2019-05-26T12:06:48.800Z,23.47
2019-05-26T12:07:48.795Z,23.38
2019-05-26T12:08:48.779Z,23.54
2019-05-26T12:09:48.789Z,23.46
2019-05-26T12:10:48.755Z,23.17
2019-05-26T12:11:48.742Z,23.27
2019-05-26T12:12:48.739Z,22.91
2019-05-26T12:13:48.745Z,23.00
2019-05-26T12:14:48.708Z,22.98
2019-05-26T12:15:48.698Z,23.07
2019-05-26T12:16:48.688Z,23.16
2019-05-26T12:17:48.676Z,23.22
2019-05-26T12:18:48.726Z,22.80
2019-05-26T12:19:48.664Z,22.58
2019-05-26T12:20:48.641Z,22.51
2019-05-26T12:21:48.640Z,22.64
2019-05-26T12:22:48.619Z,22.76
2019-05-26T12:23:48.626Z,23.04
2019-05-26T12:24:48.637Z,23.27
2019-05-26T12:25:48.584Z,23.42
2019-05-26T12:26:48.572Z,23.40
2019-05-26T12:27:48.562Z,23.47
2019-05-26T12:28:48.558Z,23.40
2019-05-26T12:29:48.539Z,23.39
2019-05-26T12:30:48.541Z,23.63
2019-05-26T12:31:48.528Z,23.79
2019-05-26T12:32:48.504Z,23.98
2019-05-26T12:33:48.494Z,24.12
2019-05-26T12:34:48.481Z,23.53
2019-05-26T12:35:48.517Z,23.36
2019-05-26T12:36:48.470Z,23.42
2019-05-26T12:37:48.725Z,23.39
2019-05-26T12:38:48.436Z,23.46
2019-05-26T12:39:48.425Z,23.72
2019-05-26T12:40:48.429Z,23.66
2019-05-26T12:41:48.405Z,23.38
2019-05-26T12:42:48.394Z,23.10
2019-05-26T12:43:48.379Z,23.17
2019-05-26T12:44:49.934Z,23.57
2019-05-26T12:45:48.371Z,23.50
2019-05-26T12:46:48.345Z,23.61
2019-05-26T12:47:48.336Z,23.39
2019-05-26T12:48:48.325Z,23.55
2019-05-26T12:49:48.316Z,23.72
2019-05-26T12:50:48.319Z,23.80
2019-05-26T12:51:48.295Z,24.00
2019-05-26T12:52:48.280Z,23.50
2019-05-26T12:53:48.278Z,23.66
2019-05-26T12:54:48.258Z,23.57
2019-05-26T12:55:48.250Z,23.98
2019-05-26T12:56:48.251Z,24.15
2019-05-26T12:57:48.229Z,23.83
2019-05-26T12:58:48.213Z,23.98
2019-05-26T12:59:48.204Z,23.97
2019-05-26T13:00:52.157Z,24.35
2019-05-26T13:01:48.205Z,24.45
2019-05-26T13:02:48.216Z,24.61
2019-05-26T13:03:48.162Z,24.64
2019-05-26T13:04:48.152Z,24.85
2019-05-26T13:05:48.143Z,24.35
2019-05-26T13:06:48.149Z,24.61
2019-05-26T13:07:48.137Z,24.53
2019-05-26T13:08:48.111Z,24.71
2019-05-26T13:09:48.100Z,24.18
2019-05-26T13:10:48.094Z,23.70
2019-05-26T13:11:48.083Z,23.51
2019-05-26T13:12:48.085Z,23.51
2019-05-26T13:13:48.061Z,23.68
2019-05-26T13:14:48.051Z,23.43
2019-05-26T13:15:48.040Z,23.46
2019-05-26T13:16:48.054Z,23.15
2019-05-26T13:17:48.034Z,22.97
2019-05-26T13:18:48.009Z,23.15
2019-05-26T13:19:47.998Z,23.13
2019-05-26T13:20:47.989Z,22.79
2019-05-26T13:21:47.976Z,22.83
2019-05-26T13:22:47.980Z,22.70
2019-05-26T13:23:47.958Z,22.80
2019-05-26T13:24:47.945Z,22.88
2019-05-26T13:25:47.936Z,22.76
2019-05-26T13:26:47.924Z,22.70
2019-05-26T13:27:47.929Z,22.67
2019-05-26T13:28:47.902Z,22.64
2019-05-26T13:29:47.892Z,22.47
2019-05-26T13:30:47.879Z,22.40
2019-05-26T13:31:47.870Z,22.40
2019-05-26T13:32:47.859Z,22.43
2019-05-26T13:33:47.864Z,22.28
2019-05-26T13:34:47.834Z,22.36
2019-05-26T13:35:47.824Z,22.31
2019-05-26T13:36:47.839Z,22.27
2019-05-26T13:37:47.800Z,22.05
2019-05-26T13:38:47.801Z,21.94
2019-05-26T13:39:47.780Z,22.03
2019-05-26T13:40:47.763Z,21.99
2019-05-26T13:41:47.754Z,22.05
2019-05-26T13:42:47.759Z,22.20
2019-05-26T13:43:47.727Z,22.30
2019-05-26T13:44:47.728Z,22.33
2019-05-26T13:45:47.704Z,22.45
2019-05-26T13:46:47.688Z,22.40
2019-05-26T13:47:47.679Z,22.62
2019-05-26T13:48:47.667Z,22.80
2019-05-26T13:49:47.667Z,22.95
2019-05-26T13:50:47.641Z,22.83
2019-05-26T13:51:50.324Z,22.58
2019-05-26T13:52:47.617Z,22.58
2019-05-26T13:53:47.604Z,22.85
2019-05-26T13:54:47.612Z,23.28
2019-05-26T13:55:47.584Z,23.46
2019-05-26T13:56:47.570Z,23.75
2019-05-26T13:57:49.650Z,24.09
2019-05-26T13:58:47.544Z,24.34
2019-05-26T13:59:47.532Z,24.81
2019-05-26T14:00:47.533Z,25.02
2019-05-26T14:01:47.516Z,24.81
2019-05-26T14:02:47.498Z,24.91
2019-05-26T14:03:47.485Z,24.96
2019-05-26T14:04:47.519Z,25.13
2019-05-26T14:05:47.464Z,24.98
2019-05-26T14:06:47.451Z,24.95
2019-05-26T14:07:47.439Z,24.50
2019-05-26T14:08:47.431Z,24.50
2019-05-26T14:09:47.422Z,24.46
2019-05-26T14:10:47.423Z,24.64
2019-05-26T14:11:47.395Z,24.96
2019-05-26T14:12:47.385Z,25.17
2019-05-26T14:13:47.375Z,25.39
2019-05-26T14:14:47.366Z,25.33
2019-05-26T14:15:47.376Z,25.35
2019-05-26T14:16:47.342Z,25.15
2019-05-26T14:17:47.332Z,25.24
2019-05-26T14:18:47.319Z,25.00
2019-05-26T14:19:47.311Z,25.32
2019-05-26T14:20:47.317Z,25.00
2019-05-26T14:21:47.294Z,25.36
2019-05-26T14:22:47.278Z,25.36
2019-05-26T14:23:47.269Z,24.99
2019-05-26T14:24:53.737Z,24.55
2019-05-26T14:25:47.264Z,24.37
2019-05-26T14:26:47.254Z,24.37
2019-05-26T14:27:47.231Z,24.47
2019-05-26T14:28:47.219Z,24.49
2019-05-26T14:29:47.208Z,24.78
2019-05-26T14:30:47.232Z,24.64
2019-05-26T14:31:47.188Z,24.98
2019-05-26T14:32:47.178Z,24.88
2019-05-26T14:33:47.167Z,24.45
2019-05-26T14:34:47.154Z,24.34
2019-05-26T14:35:47.145Z,24.21
2019-05-26T14:36:47.148Z,23.88
2019-05-26T14:37:47.126Z,23.75
2019-05-26T14:38:47.117Z,23.63
2019-05-26T14:39:49.973Z,23.68
2019-05-26T14:40:47.095Z,23.53
2019-05-26T14:41:47.103Z,23.39
2019-05-26T14:42:47.073Z,23.36
2019-05-26T14:43:47.062Z,23.50
2019-05-26T14:44:47.117Z,23.46
2019-05-26T14:45:53.402Z,23.58
2019-05-26T14:46:47.046Z,23.58
2019-05-26T14:47:47.025Z,23.35
2019-05-26T14:48:47.009Z,23.28
2019-05-26T14:49:46.997Z,23.28
2019-05-26T14:50:46.990Z,23.39
2019-05-26T14:51:46.991Z,23.33
2019-05-26T14:52:46.964Z,23.33
2019-05-26T14:53:46.951Z,23.51
2019-05-26T14:54:46.940Z,23.73
2019-05-26T14:55:46.932Z,23.66
2019-05-26T14:56:46.934Z,23.78
2019-05-26T14:57:46.907Z,23.75
2019-05-26T14:58:46.896Z,23.61
2019-05-26T14:59:46.884Z,23.70
2019-05-26T15:00:46.874Z,23.70
2019-05-26T15:01:46.877Z,23.53
2019-05-26T15:02:46.933Z,23.35
2019-05-26T15:03:46.841Z,23.22
2019-05-26T15:04:46.828Z,23.05
2019-05-26T15:05:46.816Z,23.15
2019-05-26T15:06:46.820Z,22.94
2019-05-26T15:07:46.793Z,22.91
2019-05-26T15:08:46.781Z,22.72
2019-05-26T15:09:46.771Z,22.61
2019-05-26T15:10:46.763Z,22.52
2019-05-26T15:11:46.780Z,22.46
2019-05-26T15:12:46.766Z,22.42
2019-05-26T15:13:46.746Z,22.37
2019-05-26T15:14:46.711Z,22.22
2019-05-26T15:15:46.715Z,22.28
2019-05-26T15:16:46.688Z,22.30
2019-05-26T15:17:46.674Z,22.27
2019-05-26T15:18:46.663Z,22.25
2019-05-26T15:19:46.652Z,22.24
2019-05-26T15:20:46.656Z,22.35
2019-05-26T15:21:46.627Z,22.31
2019-05-26T15:22:46.613Z,22.36
2019-05-26T15:23:46.601Z,22.39
2019-05-26T15:24:46.587Z,22.28
2019-05-26T15:25:46.619Z,22.39
2019-05-26T15:26:46.576Z,22.33
2019-05-26T15:27:46.888Z,22.35
2019-05-26T15:28:46.544Z,22.30
2019-05-26T15:29:46.526Z,22.21
2019-05-26T15:30:46.509Z,22.25
2019-05-26T15:31:46.513Z,22.25
2019-05-26T15:32:46.493Z,22.22
2019-05-26T15:33:46.474Z,22.33
2019-05-26T15:34:46.459Z,22.25
2019-05-26T15:35:46.446Z,22.25
2019-05-26T15:36:46.471Z,22.21
2019-05-26T15:37:46.477Z,22.10
2019-05-26T15:38:46.408Z,22.15
2019-05-26T15:39:46.396Z,22.12
2019-05-26T15:40:46.579Z,22.14
2019-05-26T15:41:46.385Z,22.10
2019-05-26T15:42:46.422Z,22.09
2019-05-26T15:43:46.340Z,22.15
2019-05-26T15:44:46.338Z,22.14
2019-05-26T15:45:46.316Z,22.17
2019-05-26T15:46:46.302Z,22.17
2019-05-26T15:47:46.303Z,21.98
2019-05-26T15:48:46.275Z,22.05
2019-05-26T15:49:46.262Z,21.94
2019-05-26T15:50:46.267Z,22.03
2019-05-26T15:51:46.234Z,21.91
2019-05-26T15:52:46.264Z,21.90
2019-05-26T15:53:46.210Z,21.91
2019-05-26T15:54:46.196Z,21.91
2019-05-26T15:55:46.186Z,21.83
2019-05-26T15:56:46.168Z,21.92
2019-05-26T15:57:46.156Z,21.88
2019-05-26T15:58:46.156Z,21.84
2019-05-26T15:59:46.129Z,21.94
2019-05-26T16:00:46.117Z,21.86
2019-05-26T16:01:46.103Z,21.79
2019-05-26T16:02:46.088Z,21.79
2019-05-26T16:03:46.093Z,21.69
2019-05-26T16:04:46.064Z,21.67
2019-05-26T16:05:46.050Z,21.61
2019-05-26T16:06:46.034Z,21.59
2019-05-26T16:07:46.022Z,21.56
2019-05-26T16:08:46.025Z,21.52
2019-05-26T16:09:45.996Z,21.47
2019-05-26T16:10:45.982Z,21.53
2019-05-26T16:11:45.967Z,21.49
2019-05-26T16:12:45.953Z,21.46
2019-05-26T16:13:45.955Z,21.52
2019-05-26T16:14:45.927Z,21.50
2019-05-26T16:15:45.915Z,21.50
2019-05-26T16:16:45.901Z,21.50
2019-05-26T16:17:45.888Z,21.40
2019-05-26T16:18:45.889Z,21.40
2019-05-26T16:19:45.867Z,21.38
2019-05-26T16:20:45.847Z,21.50
2019-05-26T16:21:45.834Z,21.42
2019-05-26T16:22:45.827Z,21.38
2019-05-26T16:23:45.808Z,21.38
2019-05-26T16:24:45.805Z,21.46
2019-05-26T16:25:45.782Z,21.46
2019-05-26T16:26:45.763Z,21.37
2019-05-26T16:27:45.750Z,21.28
2019-05-26T16:28:45.734Z,21.34
2019-05-26T16:29:46.690Z,21.24
2019-05-26T16:30:45.758Z,21.21
2019-05-26T16:31:45.697Z,21.24
2019-05-26T16:32:45.679Z,21.25
2019-05-26T16:33:45.666Z,21.25
2019-05-26T16:34:45.674Z,21.17
2019-05-26T16:35:45.638Z,21.22
2019-05-26T16:36:45.626Z,21.25
2019-05-26T16:37:45.614Z,21.22
2019-05-26T16:38:45.602Z,21.16
2019-05-26T16:39:45.601Z,21.27
2019-05-26T16:40:45.568Z,21.28
2019-05-26T16:41:45.557Z,21.31
2019-05-26T16:42:45.543Z,21.21
2019-05-26T16:43:45.528Z,21.16
2019-05-26T16:44:45.514Z,21.13
2019-05-26T16:45:55.617Z,21.13
2019-05-26T16:46:55.996Z,21.12
2019-05-26T16:47:45.472Z,21.12
2019-05-26T16:48:45.461Z,21.09
2019-05-26T16:49:45.451Z,21.12
2019-05-26T16:50:45.440Z,21.06
2019-05-26T16:51:45.413Z,21.06
2019-05-26T16:52:45.401Z,21.07
2019-05-26T16:53:45.390Z,21.01
2019-05-26T16:54:45.371Z,21.09
2019-05-26T16:55:45.378Z,20.99
2019-05-26T16:56:45.345Z,21.13
2019-05-26T16:57:45.332Z,21.03
2019-05-26T16:58:45.317Z,21.01
2019-05-26T16:59:45.300Z,20.99
2019-05-26T17:00:45.411Z,21.03
2019-05-26T17:01:45.278Z,21.04
2019-05-26T17:02:45.259Z,20.94
2019-05-26T17:03:45.247Z,20.92
2019-05-26T17:04:45.230Z,20.92
2019-05-26T17:05:45.219Z,21.01
2019-05-26T17:06:45.216Z,21.03
2019-05-26T17:07:45.188Z,20.99
2019-05-26T17:08:45.174Z,20.98
2019-05-26T17:09:45.161Z,20.97
2019-05-26T17:10:45.148Z,20.99
2019-05-26T17:11:45.145Z,21.01
2019-05-26T17:12:45.116Z,21.03
2019-05-26T17:13:45.105Z,21.01
2019-05-26T17:14:45.088Z,20.97
2019-05-26T17:15:45.075Z,20.95
2019-05-26T17:16:45.075Z,21.03
2019-05-26T17:17:45.047Z,20.99
2019-05-26T17:18:45.033Z,20.97
2019-05-26T17:19:45.016Z,21.01
2019-05-26T17:20:45.002Z,21.04
2019-05-26T17:21:45.024Z,20.98
2019-05-26T17:22:44.976Z,20.97
2019-05-26T17:23:44.966Z,20.97
2019-05-26T17:24:44.944Z,20.89
2019-05-26T17:25:44.930Z,20.89
2019-05-26T17:26:44.918Z,20.92
2019-05-26T17:27:44.931Z,20.82
2019-05-26T17:28:44.888Z,20.85
2019-05-26T17:29:44.872Z,20.82
2019-05-26T17:30:44.857Z,20.85
2019-05-26T17:31:44.849Z,20.85
2019-05-26T17:32:44.845Z,20.88
2019-05-26T17:33:44.817Z,20.80
2019-05-26T17:34:44.801Z,20.74
2019-05-26T17:35:44.789Z,20.76
2019-05-26T17:36:44.775Z,20.76
2019-05-26T17:37:44.771Z,20.62
2019-05-26T17:38:44.746Z,20.66
2019-05-26T17:39:44.731Z,20.61
2019-05-26T17:40:44.715Z,20.52
2019-05-26T17:41:44.722Z,20.57
2019-05-26T17:42:44.708Z,20.69
2019-05-26T17:43:44.668Z,20.69
2019-05-26T17:44:44.660Z,20.59
2019-05-26T17:45:44.649Z,20.64
2019-05-26T17:46:44.625Z,20.55
2019-05-26T17:47:44.621Z,20.58
2019-05-26T17:48:44.614Z,20.57
2019-05-26T17:49:44.586Z,20.55